createdAt,value
2022-10-09T00:01:16.948Z,101078.28
2022-10-09T00:03:47.272Z,101071.88
2022-10-09T00:06:18.247Z,101080.19
2022-10-09T00:08:47.618Z,101076.78
2022-10-09T00:11:17.807Z,101079.72
2022-10-09T00:13:45.685Z,101071.72
2022-10-09T00:16:15.464Z,101062.75
2022-10-09T00:18:43.354Z,101065.03
2022-10-09T00:21:19.269Z,101062.66
2022-10-09T00:23:49.014Z,101064.50
2022-10-09T00:26:16.661Z,101059.59
2022-10-09T00:28:44.546Z,101066.16
2022-10-09T00:31:12.865Z,101069.28
2022-10-09T00:33:41.112Z,101064.25
2022-10-09T00:36:10.610Z,101066.41
2022-10-09T00:38:38.565Z,101079.13
2022-10-09T00:41:08.186Z,101072.91
2022-10-09T00:43:42.080Z,101073.19
2022-10-09T00:46:18.514Z,101072.03
2022-10-09T00:48:46.883Z,101079.66
2022-10-09T00:51:14.667Z,101073.31
2022-10-09T00:53:42.653Z,101069.44
2022-10-09T00:56:11.815Z,101074.63
2022-10-09T00:58:39.418Z,101072.41
2022-10-09T01:01:07.321Z,101067.44
2022-10-09T01:03:35.034Z,101077.69
2022-10-09T01:06:12.892Z,101077.13
2022-10-09T01:08:48.853Z,101079.13
2022-10-09T01:11:27.552Z,101067.06
2022-10-09T01:14:02.201Z,101071.63
2022-10-09T01:16:35.306Z,101068.28
2022-10-09T01:19:12.208Z,101063.84
2022-10-09T01:21:44.123Z,101064.94
2022-10-09T01:24:25.740Z,101065.69
2022-10-09T01:27:03.436Z,101054.31
2022-10-09T01:29:36.969Z,101057.34
2022-10-09T01:32:06.597Z,101055.06
2022-10-09T01:34:34.722Z,101052.03
2022-10-09T01:37:03.260Z,101054.53
2022-10-09T01:39:33.185Z,101048.47
2022-10-09T01:42:03.009Z,101052.50
2022-10-09T01:44:33.297Z,101050.19
2022-10-09T01:47:02.013Z,101048.81
2022-10-09T01:49:40.245Z,101044.44
2022-10-09T01:52:19.349Z,101052.44
2022-10-09T01:54:55.257Z,101054.38
2022-10-09T01:57:30.265Z,101053.69
2022-10-09T02:00:03.164Z,101049.66
2022-10-09T02:02:31.059Z,101044.22
2022-10-09T02:04:59.643Z,101042.56
2022-10-09T02:07:28.202Z,101039.94
2022-10-09T02:09:57.074Z,101035.78
2022-10-09T02:12:28.901Z,101037.22
2022-10-09T02:14:57.003Z,101028.53
2022-10-09T02:17:30.502Z,101042.44
2022-10-09T02:20:04.512Z,101037.34
2022-10-09T02:22:34.351Z,101035.00
2022-10-09T02:25:05.149Z,101021.94
2022-10-09T02:27:35.074Z,101033.84
2022-10-09T02:30:03.544Z,101026.84
2022-10-09T02:32:31.189Z,101034.31
2022-10-09T02:34:59.085Z,101024.03
2022-10-09T02:37:26.817Z,101025.59
2022-10-09T02:39:54.556Z,101020.03
2022-10-09T02:42:22.269Z,101029.28
2022-10-09T02:44:51.310Z,101020.75
2022-10-09T02:47:19.054Z,101030.59
2022-10-09T02:49:46.688Z,101024.09
2022-10-09T02:52:16.717Z,101025.06
2022-10-09T02:54:44.572Z,101021.25
2022-10-09T02:57:12.228Z,101016.53
2022-10-09T02:59:39.998Z,101021.03
2022-10-09T03:02:09.211Z,101013.41
2022-10-09T03:04:40.474Z,101023.53
2022-10-09T03:07:08.099Z,101017.94
2022-10-09T03:09:35.797Z,101013.03
2022-10-09T03:12:03.501Z,101018.63
2022-10-09T03:14:31.099Z,101017.63
2022-10-09T03:16:59.290Z,101015.16
2022-10-09T03:19:28.215Z,101014.34
2022-10-09T03:21:55.808Z,101017.03
2022-10-09T03:24:23.743Z,101019.44
2022-10-09T03:26:51.662Z,101022.78
2022-10-09T03:29:19.317Z,101024.63
2022-10-09T03:31:52.233Z,101025.13
2022-10-09T03:34:20.769Z,101017.63
2022-10-09T03:36:50.211Z,101023.06
2022-10-09T03:39:17.812Z,101023.63
2022-10-09T03:41:45.489Z,101027.41
2022-10-09T03:44:13.329Z,101017.63
2022-10-09T03:46:41.123Z,101023.09
2022-10-09T03:49:09.008Z,101023.81
2022-10-09T03:51:36.683Z,101019.16
2022-10-09T03:54:06.296Z,101029.69
2022-10-09T03:56:33.961Z,101034.03
2022-10-09T03:59:01.537Z,101034.75
2022-10-09T04:01:29.402Z,101029.94
2022-10-09T04:03:57.168Z,101036.97
2022-10-09T04:06:24.814Z,101030.13
2022-10-09T04:08:52.458Z,101024.78
2022-10-09T04:11:21.500Z,101028.44
2022-10-09T04:13:49.354Z,101034.34
2022-10-09T04:16:17.033Z,101028.84
2022-10-09T04:18:45.647Z,101029.69
2022-10-09T04:21:13.509Z,101031.28
2022-10-09T04:23:41.331Z,101025.38
2022-10-09T04:26:09.119Z,101026.78
2022-10-09T04:28:38.151Z,101022.34
2022-10-09T04:31:06.441Z,101036.19
2022-10-09T04:33:34.118Z,101025.56
2022-10-09T04:36:02.119Z,101031.28
2022-10-09T04:38:32.058Z,101028.22
2022-10-09T04:41:01.123Z,101031.28
2022-10-09T04:43:29.839Z,101026.09
2022-10-09T04:45:59.205Z,101027.78
2022-10-09T04:48:27.049Z,101022.06
2022-10-09T04:50:54.679Z,101022.59
2022-10-09T04:53:22.296Z,101019.41
2022-10-09T04:55:49.959Z,101016.28
2022-10-09T04:58:17.620Z,101019.94
2022-10-09T05:00:47.025Z,101015.75
2022-10-09T05:03:16.178Z,101018.25
2022-10-09T05:05:43.887Z,101021.06
2022-10-09T05:08:11.564Z,101015.06
2022-10-09T05:10:39.479Z,101012.94
2022-10-09T05:13:07.384Z,101013.63
2022-10-09T05:15:38.077Z,101008.16
2022-10-09T05:18:05.883Z,101005.38
2022-10-09T05:20:35.104Z,101006.34
2022-10-09T05:23:02.759Z,101014.75
2022-10-09T05:25:30.465Z,101008.88
2022-10-09T05:27:58.285Z,101016.44
2022-10-09T05:30:25.905Z,101014.22
2022-10-09T05:32:53.538Z,101015.44
2022-10-09T05:35:21.146Z,101019.09
2022-10-09T05:37:50.095Z,101020.78
2022-10-09T05:40:29.105Z,101019.09
2022-10-09T05:42:57.041Z,101026.53
2022-10-09T05:45:24.671Z,101026.53
2022-10-09T05:47:52.385Z,101018.56
2022-10-09T05:50:20.106Z,101018.13
2022-10-09T05:52:50.385Z,101021.59
2022-10-09T05:55:18.352Z,101019.19
2022-10-09T05:57:47.268Z,101023.56
2022-10-09T06:00:15.630Z,101012.31
2022-10-09T06:02:44.231Z,101023.78
2022-10-09T06:05:12.062Z,101021.25
2022-10-09T06:07:39.691Z,101019.63
2022-10-09T06:10:09.650Z,101025.56
2022-10-09T06:12:37.282Z,101028.91
2022-10-09T06:15:05.401Z,101017.75
2022-10-09T06:17:33.801Z,101023.81
2022-10-09T06:20:01.533Z,101021.59
2022-10-09T06:22:29.197Z,101029.00
2022-10-09T06:24:56.832Z,101026.38
2022-10-09T06:27:26.035Z,101025.84
2022-10-09T06:29:55.990Z,101025.28
2022-10-09T06:32:23.593Z,101022.31
2022-10-09T06:34:52.070Z,101019.34
2022-10-09T06:37:19.990Z,101020.50
2022-10-09T06:39:47.680Z,101019.50
2022-10-09T06:42:16.628Z,101018.41
2022-10-09T06:44:45.735Z,101015.63
2022-10-09T06:47:13.563Z,101005.38
2022-10-09T06:49:41.205Z,101016.31
2022-10-09T06:52:08.873Z,101001.97
2022-10-09T06:54:36.756Z,101005.19
2022-10-09T06:57:04.620Z,101008.97
2022-10-09T06:59:32.197Z,101006.41
2022-10-09T07:02:01.612Z,101008.09
2022-10-09T07:04:29.368Z,101006.19
2022-10-09T07:06:57.075Z,101012.75
2022-10-09T07:09:24.652Z,101012.13
2022-10-09T07:11:52.277Z,101010.34
2022-10-09T07:14:19.992Z,101009.88
2022-10-09T07:16:49.598Z,101009.53
2022-10-09T07:19:19.724Z,101007.44
2022-10-09T07:21:48.916Z,101007.75
2022-10-09T07:24:17.611Z,100991.28
2022-10-09T07:26:47.785Z,100998.06
2022-10-09T07:29:17.003Z,100990.13
2022-10-09T07:31:44.885Z,101001.47
2022-10-09T07:34:12.713Z,100993.44
2022-10-09T07:36:41.675Z,101003.47
2022-10-09T07:39:09.772Z,100998.47
2022-10-09T07:41:37.952Z,100989.38
2022-10-09T07:44:05.743Z,100996.34
2022-10-09T07:46:34.316Z,100991.19
2022-10-09T07:49:02.379Z,100994.31
2022-10-09T07:51:30.895Z,100998.56
2022-10-09T07:54:01.803Z,101001.06
2022-10-09T07:56:31.436Z,100988.94
2022-10-09T07:59:00.899Z,100988.59
2022-10-09T08:01:29.748Z,100988.59
2022-10-09T08:03:58.299Z,100980.88
2022-10-09T08:06:26.271Z,100989.00
2022-10-09T08:08:55.861Z,100983.16
2022-10-09T08:11:27.196Z,100988.94
2022-10-09T08:13:55.174Z,100977.59
2022-10-09T08:16:24.272Z,100974.69
2022-10-09T08:18:55.983Z,100972.19
2022-10-09T08:21:23.812Z,100973.31
2022-10-09T08:23:54.315Z,100969.66
2022-10-09T08:26:25.643Z,100957.19
2022-10-09T08:28:54.788Z,100958.38
2022-10-09T08:31:23.547Z,100966.94
2022-10-09T08:33:53.458Z,100959.06
2022-10-09T08:36:21.147Z,100961.06
2022-10-09T08:38:49.873Z,100944.91
2022-10-09T08:41:40.659Z,100957.19
2022-10-09T08:44:14.856Z,100951.69
2022-10-09T08:46:52.486Z,100949.97
2022-10-09T08:49:27.014Z,100953.06
2022-10-09T08:51:57.881Z,100948.34
2022-10-09T08:54:34.206Z,100947.19
2022-10-09T08:57:06.313Z,100949.63
2022-10-09T08:59:35.036Z,100943.97
2022-10-09T09:02:16.835Z,100953.50
2022-10-09T09:04:56.351Z,100947.25
2022-10-09T09:07:35.483Z,100947.75
2022-10-09T09:10:11.686Z,100938.38
2022-10-09T09:12:49.881Z,100935.13
2022-10-09T09:15:29.412Z,100936.66
2022-10-09T09:18:10.832Z,100936.19
2022-10-09T09:20:48.513Z,100934.97
2022-10-09T09:23:17.367Z,100926.13
2022-10-09T09:25:46.707Z,100931.97
2022-10-09T09:28:21.186Z,100923.38
2022-10-09T09:30:52.628Z,100925.84
2022-10-09T09:33:25.646Z,100909.31
2022-10-09T09:36:05.395Z,100912.59
2022-10-09T09:38:33.252Z,100908.91
2022-10-09T09:41:00.989Z,100898.41
2022-10-09T09:43:29.943Z,100895.63
2022-10-09T09:45:59.837Z,100897.16
2022-10-09T09:48:34.484Z,100889.38
2022-10-09T09:51:26.959Z,100887.91
2022-10-09T09:53:55.205Z,100883.00
2022-10-09T09:56:53.362Z,100873.50
2022-10-09T09:59:36.384Z,100874.34
2022-10-09T10:02:13.516Z,100863.25
2022-10-09T10:04:52.530Z,100861.09
2022-10-09T10:07:31.743Z,100850.84
2022-10-09T10:10:06.875Z,100856.75
2022-10-09T10:12:34.703Z,100849.41
2022-10-09T10:15:03.730Z,100853.13
2022-10-09T10:17:33.455Z,100853.25
2022-10-09T10:20:06.932Z,100849.25
2022-10-09T10:22:35.049Z,100848.44
2022-10-09T10:25:03.035Z,100848.75
2022-10-09T10:27:36.395Z,100841.34
2022-10-09T10:30:08.138Z,100834.50
2022-10-09T10:32:39.790Z,100838.69
2022-10-09T10:35:14.694Z,100837.59
2022-10-09T10:37:47.477Z,100826.28
2022-10-09T10:40:21.101Z,100817.53
2022-10-09T10:43:00.033Z,100822.50
2022-10-09T10:45:35.373Z,100813.75
2022-10-09T10:48:05.520Z,100816.69
2022-10-09T10:50:39.417Z,100813.16
2022-10-09T10:53:16.313Z,100814.44
2022-10-09T10:55:53.001Z,100801.56
2022-10-09T10:58:27.388Z,100805.34
2022-10-09T11:01:12.920Z,100798.88
2022-10-09T11:04:02.503Z,100799.50
2022-10-09T11:06:39.083Z,100793.25
2022-10-09T11:09:16.184Z,100789.72
2022-10-09T11:11:52.874Z,100783.88
2022-10-09T11:14:36.592Z,100782.47
2022-10-09T11:17:17.707Z,100765.38
2022-10-09T11:20:03.089Z,100773.28
2022-10-09T11:22:43.308Z,100761.63
2022-10-09T11:25:27.972Z,100754.78
2022-10-09T11:27:59.860Z,100759.97
2022-10-09T11:30:31.459Z,100742.75
2022-10-09T11:33:07.460Z,100746.88
2022-10-09T11:35:41.539Z,100746.50
2022-10-09T11:38:34.315Z,100730.81
2022-10-09T11:41:05.109Z,100736.47
2022-10-09T11:44:05.968Z,100729.22
2022-10-09T11:46:45.500Z,100728.34
2022-10-09T11:49:23.878Z,100723.56
2022-10-09T11:51:58.137Z,100718.22
2022-10-09T11:54:27.444Z,100714.50
2022-10-09T11:56:57.853Z,100708.47
2022-10-09T11:59:30.281Z,100705.69
2022-10-09T12:02:02.109Z,100706.94
2022-10-09T12:07:34.099Z,100688.50
2022-10-09T12:10:05.816Z,100687.81
2022-10-09T12:12:34.693Z,100677.00
2022-10-09T12:15:24.190Z,100674.94
2022-10-09T12:17:52.068Z,100667.19
2022-10-09T12:20:24.956Z,100666.94
2022-10-09T12:23:21.706Z,100656.06
2022-10-09T12:25:46.736Z,100654.41
2022-10-09T12:28:26.902Z,100643.44
2022-10-09T12:30:56.277Z,100646.31
2022-10-09T12:33:27.458Z,100642.22
2022-10-09T12:36:05.903Z,100638.06
2022-10-09T12:38:33.942Z,100639.78
2022-10-09T12:41:06.030Z,100642.88
2022-10-09T12:43:36.274Z,100633.13
2022-10-09T12:46:04.376Z,100636.91
2022-10-09T12:48:37.896Z,100622.69
2022-10-09T12:51:16.206Z,100615.59
2022-10-09T12:53:48.997Z,100608.69
2022-10-09T12:56:21.902Z,100609.53
2022-10-09T12:58:50.823Z,100600.81
2022-10-09T13:01:20.919Z,100597.97
2022-10-09T13:03:55.513Z,100600.31
2022-10-09T13:06:27.212Z,100595.22
2022-10-09T13:08:57.737Z,100598.31
2022-10-09T13:11:32.544Z,100582.41
2022-10-09T13:14:00.744Z,100581.38
2022-10-09T13:16:39.533Z,100572.84
2022-10-09T13:19:23.352Z,100572.31
2022-10-09T13:22:17.141Z,100562.59
2022-10-09T13:24:45.140Z,100558.06
2022-10-09T13:27:14.505Z,100554.09
2022-10-09T13:29:43.089Z,100548.97
2022-10-09T13:32:13.308Z,100543.38
2022-10-09T13:34:41.124Z,100537.34
2022-10-09T13:37:11.538Z,100544.94
2022-10-09T13:39:39.260Z,100530.84
2022-10-09T13:42:07.487Z,100528.69
2022-10-09T13:44:35.120Z,100525.69
2022-10-09T13:47:02.869Z,100516.19
2022-10-09T13:49:30.495Z,100517.81
2022-10-09T13:51:58.093Z,100513.69
2022-10-09T13:54:29.639Z,100512.78
2022-10-09T13:56:58.692Z,100518.78
2022-10-09T13:59:26.641Z,100507.63
2022-10-09T14:01:57.268Z,100501.94
2022-10-09T14:04:25.060Z,100497.31
2022-10-09T14:06:52.792Z,100496.66
2022-10-09T14:09:20.700Z,100490.25
2022-10-09T14:11:49.724Z,100485.81
2022-10-09T14:14:17.439Z,100479.91
2022-10-09T14:16:45.096Z,100477.50
2022-10-09T14:19:12.717Z,100466.88
2022-10-09T14:21:40.707Z,100473.22
2022-10-09T14:24:10.013Z,100458.13
2022-10-09T14:26:38.982Z,100456.75
2022-10-09T14:29:07.879Z,100452.63
2022-10-09T14:31:35.606Z,100446.44
2022-10-09T14:34:03.545Z,100437.31
2022-10-09T14:36:31.584Z,100441.81
2022-10-09T14:39:00.817Z,100435.41
2022-10-09T14:41:30.614Z,100428.13
2022-10-09T14:44:00.884Z,100422.84
2022-10-09T14:46:33.756Z,100423.69
2022-10-09T14:49:07.042Z,100425.66
2022-10-09T14:51:38.444Z,100415.41
2022-10-09T14:54:07.002Z,100411.34
2022-10-09T14:56:35.578Z,100410.97
2022-10-09T14:59:03.568Z,100415.03
2022-10-09T15:01:33.354Z,100414.38
2022-10-09T15:04:01.628Z,100416.63
2022-10-09T15:06:29.800Z,100409.25
2022-10-09T15:09:03.197Z,100408.25
2022-10-09T15:11:33.509Z,100396.78
2022-10-09T15:14:01.121Z,100401.25
2022-10-09T15:16:28.938Z,100390.81
2022-10-09T15:18:58.306Z,100382.56
2022-10-09T15:21:27.694Z,100384.84
2022-10-09T15:23:56.448Z,100391.78
2022-10-09T15:26:24.803Z,100373.50
2022-10-09T15:28:52.463Z,100387.78
2022-10-09T15:31:23.986Z,100375.47
2022-10-09T15:33:52.184Z,100377.16
2022-10-09T15:36:21.460Z,100382.16
2022-10-09T15:38:49.471Z,100367.44
2022-10-09T15:41:24.059Z,100371.41
2022-10-09T15:43:55.295Z,100370.78
2022-10-09T15:46:23.090Z,100371.00
2022-10-09T15:48:51.671Z,100365.22
2022-10-09T15:51:27.154Z,100368.41
2022-10-09T15:53:56.321Z,100367.16
2022-10-09T15:56:33.813Z,100363.03
2022-10-09T15:59:04.012Z,100359.19
2022-10-09T16:01:33.689Z,100354.16
2022-10-09T16:04:05.801Z,100349.28
2022-10-09T16:06:39.166Z,100347.69
2022-10-09T16:09:13.722Z,100340.00
2022-10-09T16:11:49.030Z,100337.91
2022-10-09T16:14:22.730Z,100344.19
2022-10-09T16:16:51.966Z,100344.88
2022-10-09T16:19:20.228Z,100345.53
2022-10-09T16:22:00.513Z,100342.88
2022-10-09T16:24:28.650Z,100343.13
2022-10-09T16:26:56.564Z,100348.53
2022-10-09T16:29:36.216Z,100338.78
2022-10-09T16:32:04.669Z,100342.56
2022-10-09T16:34:35.806Z,100339.34
2022-10-09T16:37:07.877Z,100334.56
2022-10-09T16:39:38.542Z,100338.53
2022-10-09T16:42:09.564Z,100333.16
2022-10-09T16:44:41.366Z,100344.16
2022-10-09T16:47:15.614Z,100332.16
2022-10-09T16:49:53.915Z,100344.38
2022-10-09T16:52:23.678Z,100341.53
2022-10-09T16:54:54.942Z,100351.97
2022-10-09T16:57:27.553Z,100349.44
2022-10-09T16:59:55.315Z,100347.19
2022-10-09T17:02:23.093Z,100355.28
2022-10-09T17:04:50.890Z,100350.53
2022-10-09T17:07:22.963Z,100350.94
2022-10-09T17:09:53.607Z,100357.22
2022-10-09T17:12:24.073Z,100354.50
2022-10-09T17:14:51.942Z,100353.06
2022-10-09T17:17:19.629Z,100347.69
2022-10-09T17:19:47.972Z,100347.13
2022-10-09T17:22:15.965Z,100344.47
2022-10-09T17:24:44.187Z,100350.94
2022-10-09T17:27:13.342Z,100344.72
2022-10-09T17:29:41.763Z,100347.22
2022-10-09T17:32:09.779Z,100350.53
2022-10-09T17:34:45.788Z,100349.28
2022-10-09T17:37:14.655Z,100356.56
2022-10-09T17:39:45.565Z,100347.44
2022-10-09T17:42:16.623Z,100354.06
2022-10-09T17:44:46.970Z,100353.63
2022-10-09T17:47:16.123Z,100356.75
2022-10-09T17:49:45.630Z,100357.72
2022-10-09T17:52:13.994Z,100356.72
2022-10-09T17:54:42.377Z,100348.81
2022-10-09T17:57:15.011Z,100349.63
2022-10-09T17:59:46.515Z,100350.88
2022-10-09T18:02:33.963Z,100342.56
2022-10-09T18:05:02.204Z,100346.66
2022-10-09T18:07:29.979Z,100340.88
2022-10-09T18:10:09.329Z,100341.69
2022-10-09T18:12:41.146Z,100337.09
2022-10-09T18:15:16.785Z,100340.00
2022-10-09T18:17:51.770Z,100345.38
2022-10-09T18:20:19.921Z,100333.00
2022-10-09T18:22:47.720Z,100337.94
2022-10-09T18:25:16.437Z,100338.94
2022-10-09T18:27:44.118Z,100342.38
2022-10-09T18:30:16.827Z,100343.38
2022-10-09T18:36:42.289Z,100346.03
2022-10-09T18:39:14.574Z,100351.19
2022-10-09T18:41:43.064Z,100349.72
2022-10-09T18:44:17.380Z,100351.41
2022-10-09T18:46:49.282Z,100357.41
2022-10-09T18:49:20.086Z,100356.94
2022-10-09T18:51:49.728Z,100347.81
2022-10-09T18:54:20.433Z,100356.31
2022-10-09T18:56:48.539Z,100344.72
2022-10-09T18:59:19.299Z,100348.66
2022-10-09T19:01:48.784Z,100342.19
2022-10-09T19:04:16.738Z,100343.63
2022-10-09T19:06:44.428Z,100344.63
2022-10-09T19:09:12.247Z,100344.09
2022-10-09T19:11:40.211Z,100349.25
2022-10-09T19:14:07.803Z,100346.91
2022-10-09T19:16:36.212Z,100347.84
2022-10-09T19:19:05.396Z,100347.56
2022-10-09T19:21:33.167Z,100349.50
2022-10-09T19:24:03.388Z,100349.28
2022-10-09T19:26:32.732Z,100342.25
2022-10-09T19:29:00.992Z,100351.38
2022-10-09T19:31:28.606Z,100354.16
2022-10-09T19:33:56.279Z,100343.81
2022-10-09T19:36:26.668Z,100343.56
2022-10-09T19:38:54.839Z,100337.06
2022-10-09T19:41:22.469Z,100333.28
2022-10-09T19:43:50.088Z,100336.97
2022-10-09T19:46:20.733Z,100335.19
2022-10-09T19:48:48.547Z,100329.94
2022-10-09T19:51:18.282Z,100334.06
2022-10-09T19:53:51.990Z,100335.81
2022-10-09T19:56:21.858Z,100340.81
2022-10-09T19:58:52.480Z,100339.34
2022-10-09T20:01:21.986Z,100337.13
2022-10-09T20:03:54.490Z,100337.34
2022-10-09T20:06:25.576Z,100335.50
2022-10-09T20:08:57.473Z,100333.25
2022-10-09T20:11:26.521Z,100338.59
2022-10-09T20:13:56.650Z,100338.13
2022-10-09T20:16:25.681Z,100331.06
2022-10-09T20:18:55.161Z,100338.88
2022-10-09T20:21:23.838Z,100328.44
2022-10-09T20:23:51.720Z,100327.38
2022-10-09T20:26:22.131Z,100335.56
2022-10-09T20:28:50.666Z,100327.31
2022-10-09T20:31:21.024Z,100331.09
2022-10-09T20:33:50.184Z,100316.94
2022-10-09T20:36:24.333Z,100325.88
2022-10-09T20:38:53.496Z,100324.97
2022-10-09T20:41:22.780Z,100330.97
2022-10-09T20:43:52.029Z,100329.72
2022-10-09T20:46:21.182Z,100330.28
2022-10-09T20:48:49.653Z,100322.59
2022-10-09T20:51:17.548Z,100321.25
2022-10-09T20:53:45.211Z,100314.03
2022-10-09T20:56:15.134Z,100318.00
2022-10-09T20:58:47.037Z,100317.63
2022-10-09T21:01:16.674Z,100320.03
2022-10-09T21:03:45.045Z,100312.69
2022-10-09T21:06:15.434Z,100312.88
2022-10-09T21:08:43.163Z,100305.78
2022-10-09T21:11:12.935Z,100313.75
2022-10-09T21:13:41.663Z,100308.94
2022-10-09T21:16:12.910Z,100316.59
2022-10-09T21:18:42.574Z,100314.00
2022-10-09T21:21:12.505Z,100309.41
2022-10-09T21:23:40.769Z,100309.78
2022-10-09T21:26:12.584Z,100308.41
2022-10-09T21:28:40.264Z,100312.56
2022-10-09T21:31:11.221Z,100308.03
2022-10-09T21:33:39.034Z,100309.69
2022-10-09T21:36:11.228Z,100305.34
2022-10-09T21:38:39.084Z,100311.28
2022-10-09T21:41:06.763Z,100311.81
2022-10-09T21:43:34.445Z,100309.63
2022-10-09T21:46:02.192Z,100306.28
2022-10-09T21:48:31.408Z,100305.25
2022-10-09T21:50:59.013Z,100308.50
2022-10-09T21:53:26.815Z,100301.19
2022-10-09T21:55:54.431Z,100301.66
2022-10-09T21:58:24.237Z,100297.63
2022-10-09T22:00:57.096Z,100299.28
2022-10-09T22:03:25.656Z,100296.22
2022-10-09T22:05:54.941Z,100298.81
2022-10-09T22:08:23.137Z,100282.56
2022-10-09T22:10:51.360Z,100289.78
2022-10-09T22:13:19.714Z,100289.22
2022-10-09T22:15:50.948Z,100292.53
2022-10-09T22:18:19.125Z,100295.56
2022-10-09T22:20:49.348Z,100288.47
2022-10-09T22:23:19.365Z,100287.34
2022-10-09T22:25:57.088Z,100290.13
2022-10-09T22:28:24.987Z,100289.00
2022-10-09T22:31:01.928Z,100287.72
2022-10-09T22:33:29.818Z,100295.13
2022-10-09T22:36:06.995Z,100284.03
2022-10-09T22:38:37.126Z,100284.09
2022-10-09T22:41:06.809Z,100277.66
2022-10-09T22:43:34.728Z,100280.03
2022-10-09T22:46:05.917Z,100281.44
2022-10-09T22:48:35.107Z,100280.59
2022-10-09T22:51:04.589Z,100285.94
2022-10-09T22:53:32.376Z,100278.19
2022-10-09T22:56:01.609Z,100276.78
2022-10-09T22:58:29.381Z,100285.94
2022-10-09T23:00:57.252Z,100277.09
2022-10-09T23:03:24.933Z,100273.84
2022-10-09T23:05:52.616Z,100278.88
2022-10-09T23:08:20.132Z,100277.19
2022-10-09T23:10:47.745Z,100270.66
2022-10-09T23:13:16.705Z,100269.72
2022-10-09T23:15:44.494Z,100271.53
2022-10-09T23:18:12.145Z,100269.31
2022-10-09T23:20:39.800Z,100264.53
2022-10-09T23:23:07.746Z,100259.25
2022-10-09T23:25:35.432Z,100263.50
2022-10-09T23:28:03.144Z,100259.19
2022-10-09T23:30:32.846Z,100262.38
2022-10-09T23:33:00.419Z,100266.91
2022-10-09T23:35:28.501Z,100263.41
2022-10-09T23:37:56.439Z,100250.97
2022-10-09T23:40:24.164Z,100255.88
2022-10-09T23:42:52.319Z,100254.75
2022-10-09T23:45:20.242Z,100248.09
2022-10-09T23:47:49.151Z,100251.72
2022-10-09T23:50:16.918Z,100250.13
2022-10-09T23:52:44.617Z,100244.41
2022-10-09T23:55:12.284Z,100236.75
2022-10-09T23:57:40.001Z,100243.75
